Flagler Beach, Florida
Current Conditions -  °F | °C
As of 9:55 PM on Saturday 25 Oct 2014 (Local Time) from KXFL Reporting Station
NA  
Wind Chill: 57°   Ceiling: NA
Heat Index: 57°   Visibility: NA
Dew Point: 53°   Wind: 0mph
Humidity: 85%   Direction: NA
Pressure: 30.01"   Gusts: NA
Location:  29.47°N, 81.13°W
Report Text: KXFL 260155Z AUTO 00000KT 14/12 A3001 RMK AO2 T01390115 PWINO
Loading
Personal Weather Stations






























Interactive Weather Map
Tropical Storm Tracking
New forecast layout! Learn more

10-Day Weather Forecast

Advertisements
Track Severe Weather on mobile